sensor_id;sensor_type;location;lat;lon;timestamp;temperature;humidity
12303;DHT22;6214;48.012;7.862;2023-06-04T00:02:21;20.00;99.90
12303;DHT22;6214;48.012;7.862;2023-06-04T00:04:48;19.90;99.90
12303;DHT22;6214;48.012;7.862;2023-06-04T00:07:15;19.90;99.90
12303;DHT22;6214;48.012;7.862;2023-06-04T00:09:42;19.80;99.90
12303;DHT22;6214;48.012;7.862;2023-06-04T00:12:09;19.80;99.90
12303;DHT22;6214;48.012;7.862;2023-06-04T00:14:36;19.90;99.90
12303;DHT22;6214;48.012;7.862;2023-06-04T00:17:03;19.70;99.90
12303;DHT22;6214;48.012;7.862;2023-06-04T00:19:30;19.60;99.90
12303;DHT22;6214;48.012;7.862;2023-06-04T00:21:57;19.80;99.90
12303;DHT22;6214;48.012;7.862;2023-06-04T00:24:24;19.90;99.90
12303;DHT22;6214;48.012;7.862;2023-06-04T00:26:51;19.80;99.90
12303;DHT22;6214;48.012;7.862;2023-06-04T00:29:18;19.90;99.90
12303;DHT22;6214;48.012;7.862;2023-06-04T00:31:45;19.70;99.90
12303;DHT22;6214;48.012;7.862;2023-06-04T00:34:12;19.70;99.90
12303;DHT22;6214;48.012;7.862;2023-06-04T00:36:39;19.60;99.90
12303;DHT22;6214;48.012;7.862;2023-06-04T00:39:06;19.60;99.90
12303;DHT22;6214;48.012;7.862;2023-06-04T00:41:33;19.40;99.90
12303;DHT22;6214;48.012;7.862;2023-06-04T00:44:00;19.30;99.90
12303;DHT22;6214;48.012;7.862;2023-06-04T00:46:28;19.20;99.90
12303;DHT22;6214;48.012;7.862;2023-06-04T00:48:56;19.10;99.90
12303;DHT22;6214;48.012;7.862;2023-06-04T00:51:23;19.10;99.90
12303;DHT22;6214;48.012;7.862;2023-06-04T00:53:50;19.00;99.90
12303;DHT22;6214;48.012;7.862;2023-06-04T00:56:17;19.10;99.90
12303;DHT22;6214;48.012;7.862;2023-06-04T00:58:45;19.00;99.90
12303;DHT22;6214;48.012;7.862;2023-06-04T01:04:04;18.90;99.90
12303;DHT22;6214;48.012;7.862;2023-06-04T01:06:41;18.70;99.90
12303;DHT22;6214;48.012;7.862;2023-06-04T01:09:10;18.80;99.90
12303;DHT22;6214;48.012;7.862;2023-06-04T01:11:38;18.70;99.90
12303;DHT22;6214;48.012;7.862;2023-06-04T01:14:08;18.60;99.90
12303;DHT22;6214;48.012;7.862;2023-06-04T01:17:25;18.70;99.90
12303;DHT22;6214;48.012;7.862;2023-06-04T01:25:33;18.40;99.90
12303;DHT22;6214;48.012;7.862;2023-06-04T01:28:01;18.40;99.90
12303;DHT22;6214;48.012;7.862;2023-06-04T01:30:32;18.30;99.90
12303;DHT22;6214;48.012;7.862;2023-06-04T01:33:00;18.30;99.90
12303;DHT22;6214;48.012;7.862;2023-06-04T01:35:28;18.40;99.90
12303;DHT22;6214;48.012;7.862;2023-06-04T01:37:58;18.30;99.90
12303;DHT22;6214;48.012;7.862;2023-06-04T01:40:25;18.20;99.90
12303;DHT22;6214;48.012;7.862;2023-06-04T01:42:53;18.00;99.90
12303;DHT22;6214;48.012;7.862;2023-06-04T01:45:22;18.10;99.90
12303;DHT22;6214;48.012;7.862;2023-06-04T01:47:49;18.20;99.90
12303;DHT22;6214;48.012;7.862;2023-06-04T01:50:17;18.20;99.90
12303;DHT22;6214;48.012;7.862;2023-06-04T01:52:44;18.30;99.90
12303;DHT22;6214;48.012;7.862;2023-06-04T01:55:12;18.50;99.90
12303;DHT22;6214;48.012;7.862;2023-06-04T01:57:42;18.60;99.90
12303;DHT22;6214;48.012;7.862;2023-06-04T02:00:11;18.50;99.90
12303;DHT22;6214;48.012;7.862;2023-06-04T02:02:40;18.50;99.90
12303;DHT22;6214;48.012;7.862;2023-06-04T02:05:09;18.40;99.90
12303;DHT22;6214;48.012;7.862;2023-06-04T02:07:37;18.40;99.90
12303;DHT22;6214;48.012;7.862;2023-06-04T02:10:09;18.20;99.90
12303;DHT22;6214;48.012;7.862;2023-06-04T02:12:39;18.10;99.90
12303;DHT22;6214;48.012;7.862;2023-06-04T02:15:09;18.10;99.90
12303;DHT22;6214;48.012;7.862;2023-06-04T02:17:36;18.10;99.90
12303;DHT22;6214;48.012;7.862;2023-06-04T02:20:10;18.10;99.90
12303;DHT22;6214;48.012;7.862;2023-06-04T02:22:37;17.90;99.90
12303;DHT22;6214;48.012;7.862;2023-06-04T02:25:05;17.90;99.90
12303;DHT22;6214;48.012;7.862;2023-06-04T02:27:32;17.80;99.90
12303;DHT22;6214;48.012;7.862;2023-06-04T02:29:59;17.70;99.90
12303;DHT22;6214;48.012;7.862;2023-06-04T02:32:26;17.70;99.90
12303;DHT22;6214;48.012;7.862;2023-06-04T02:34:53;17.90;99.90
12303;DHT22;6214;48.012;7.862;2023-06-04T02:37:21;17.90;99.90
12303;DHT22;6214;48.012;7.862;2023-06-04T02:39:49;17.70;99.90
12303;DHT22;6214;48.012;7.862;2023-06-04T02:42:16;17.50;99.90
12303;DHT22;6214;48.012;7.862;2023-06-04T02:44:43;17.50;99.90
12303;DHT22;6214;48.012;7.862;2023-06-04T02:47:10;17.40;99.90
12303;DHT22;6214;48.012;7.862;2023-06-04T02:49:37;17.20;99.90
12303;DHT22;6214;48.012;7.862;2023-06-04T02:52:04;17.30;99.90
12303;DHT22;6214;48.012;7.862;2023-06-04T02:54:31;17.30;99.90
12303;DHT22;6214;48.012;7.862;2023-06-04T02:56:58;17.30;99.90
12303;DHT22;6214;48.012;7.862;2023-06-04T02:59:26;17.30;99.90
12303;DHT22;6214;48.012;7.862;2023-06-04T03:01:53;17.30;99.90
12303;DHT22;6214;48.012;7.862;2023-06-04T03:04:21;17.30;99.90
12303;DHT22;6214;48.012;7.862;2023-06-04T03:06:48;17.10;99.90
12303;DHT22;6214;48.012;7.862;2023-06-04T03:09:24;17.10;99.90
12303;DHT22;6214;48.012;7.862;2023-06-04T03:11:51;17.00;99.90
12303;DHT22;6214;48.012;7.862;2023-06-04T03:14:20;17.00;99.90
12303;DHT22;6214;48.012;7.862;2023-06-04T03:16:47;16.90;99.90
12303;DHT22;6214;48.012;7.862;2023-06-04T03:19:15;16.90;99.90
12303;DHT22;6214;48.012;7.862;2023-06-04T03:21:43;16.90;99.90
12303;DHT22;6214;48.012;7.862;2023-06-04T03:24:11;17.00;99.90
12303;DHT22;6214;48.012;7.862;2023-06-04T03:26:38;17.00;99.90
12303;DHT22;6214;48.012;7.862;2023-06-04T03:29:06;16.90;99.90
12303;DHT22;6214;48.012;7.862;2023-06-04T03:31:33;16.90;99.90
12303;DHT22;6214;48.012;7.862;2023-06-04T03:34:00;16.80;99.90
12303;DHT22;6214;48.012;7.862;2023-06-04T03:36:27;16.90;99.90
12303;DHT22;6214;48.012;7.862;2023-06-04T03:38:58;16.70;99.90
12303;DHT22;6214;48.012;7.862;2023-06-04T03:41:25;16.60;99.90
12303;DHT22;6214;48.012;7.862;2023-06-04T03:43:52;16.70;99.90
12303;DHT22;6214;48.012;7.862;2023-06-04T03:46:19;16.70;99.90
12303;DHT22;6214;48.012;7.862;2023-06-04T03:48:47;16.60;99.90
12303;DHT22;6214;48.012;7.862;2023-06-04T03:51:14;16.60;99.90
12303;DHT22;6214;48.012;7.862;2023-06-04T03:53:41;16.60;99.90
12303;DHT22;6214;48.012;7.862;2023-06-04T03:56:08;16.70;99.90
12303;DHT22;6214;48.012;7.862;2023-06-04T03:58:35;16.60;99.90
12303;DHT22;6214;48.012;7.862;2023-06-04T04:01:03;16.70;99.90
12303;DHT22;6214;48.012;7.862;2023-06-04T04:03:34;16.70;99.90
12303;DHT22;6214;48.012;7.862;2023-06-04T04:06:02;16.70;99.90
12303;DHT22;6214;48.012;7.862;2023-06-04T04:08:29;16.60;99.90
12303;DHT22;6214;48.012;7.862;2023-06-04T04:10:58;16.60;99.90
12303;DHT22;6214;48.012;7.862;2023-06-04T04:13:25;16.60;99.90
12303;DHT22;6214;48.012;7.862;2023-06-04T04:15:52;16.70;99.90
12303;DHT22;6214;48.012;7.862;2023-06-04T04:18:20;16.70;99.90
12303;DHT22;6214;48.012;7.862;2023-06-04T04:20:47;16.70;99.90
12303;DHT22;6214;48.012;7.862;2023-06-04T04:23:14;16.80;99.90
12303;DHT22;6214;48.012;7.862;2023-06-04T04:25:41;16.70;99.90
12303;DHT22;6214;48.012;7.862;2023-06-04T04:28:11;16.70;99.90
12303;DHT22;6214;48.012;7.862;2023-06-04T04:30:39;16.70;99.90
12303;DHT22;6214;48.012;7.862;2023-06-04T04:33:07;16.70;99.90
12303;DHT22;6214;48.012;7.862;2023-06-04T04:35:34;16.60;99.90
12303;DHT22;6214;48.012;7.862;2023-06-04T04:38:02;16.60;99.90
12303;DHT22;6214;48.012;7.862;2023-06-04T04:40:31;16.60;99.90
12303;DHT22;6214;48.012;7.862;2023-06-04T04:42:58;16.70;99.90
12303;DHT22;6214;48.012;7.862;2023-06-04T04:45:26;16.70;99.90
12303;DHT22;6214;48.012;7.862;2023-06-04T04:47:53;16.70;99.90
12303;DHT22;6214;48.012;7.862;2023-06-04T04:50:20;16.90;99.90
12303;DHT22;6214;48.012;7.862;2023-06-04T04:52:47;17.00;99.90
12303;DHT22;6214;48.012;7.862;2023-06-04T04:55:14;17.00;99.90
12303;DHT22;6214;48.012;7.862;2023-06-04T04:57:41;17.00;99.90
12303;DHT22;6214;48.012;7.862;2023-06-04T05:00:09;17.10;99.90
12303;DHT22;6214;48.012;7.862;2023-06-04T05:02:36;17.10;99.90
12303;DHT22;6214;48.012;7.862;2023-06-04T05:05:03;17.20;99.90
12303;DHT22;6214;48.012;7.862;2023-06-04T05:07:31;17.20;99.90
12303;DHT22;6214;48.012;7.862;2023-06-04T05:09:58;17.20;99.90
12303;DHT22;6214;48.012;7.862;2023-06-04T05:12:26;17.30;99.90
12303;DHT22;6214;48.012;7.862;2023-06-04T05:14:53;17.30;99.90
12303;DHT22;6214;48.012;7.862;2023-06-04T05:17:20;17.30;99.90
12303;DHT22;6214;48.012;7.862;2023-06-04T05:19:57;17.30;99.90
12303;DHT22;6214;48.012;7.862;2023-06-04T05:22:39;17.50;99.90
12303;DHT22;6214;48.012;7.862;2023-06-04T05:25:06;17.60;99.90
12303;DHT22;6214;48.012;7.862;2023-06-04T05:27:35;17.70;99.90
12303;DHT22;6214;48.012;7.862;2023-06-04T05:30:03;17.70;99.90
12303;DHT22;6214;48.012;7.862;2023-06-04T05:32:30;17.80;99.90
12303;DHT22;6214;48.012;7.862;2023-06-04T05:34:59;17.90;99.90
12303;DHT22;6214;48.012;7.862;2023-06-04T05:37:26;18.20;99.90
12303;DHT22;6214;48.012;7.862;2023-06-04T05:39:55;18.30;99.90
12303;DHT22;6214;48.012;7.862;2023-06-04T05:42:23;18.30;99.90
12303;DHT22;6214;48.012;7.862;2023-06-04T05:44:51;18.30;99.90
12303;DHT22;6214;48.012;7.862;2023-06-04T05:47:18;18.40;99.90
12303;DHT22;6214;48.012;7.862;2023-06-04T05:49:45;18.50;99.90
12303;DHT22;6214;48.012;7.862;2023-06-04T05:52:12;18.50;99.90
12303;DHT22;6214;48.012;7.862;2023-06-04T05:54:39;18.50;99.90
12303;DHT22;6214;48.012;7.862;2023-06-04T05:57:06;18.70;99.90
12303;DHT22;6214;48.012;7.862;2023-06-04T05:59:34;18.80;99.90
12303;DHT22;6214;48.012;7.862;2023-06-04T06:02:01;18.80;99.90
12303;DHT22;6214;48.012;7.862;2023-06-04T06:04:29;18.80;99.90
12303;DHT22;6214;48.012;7.862;2023-06-04T06:06:56;18.70;99.90
12303;DHT22;6214;48.012;7.862;2023-06-04T06:09:23;18.60;99.90
12303;DHT22;6214;48.012;7.862;2023-06-04T06:11:50;18.50;99.90
12303;DHT22;6214;48.012;7.862;2023-06-04T06:14:17;18.40;99.90
12303;DHT22;6214;48.012;7.862;2023-06-04T06:16:44;18.50;99.90
12303;DHT22;6214;48.012;7.862;2023-06-04T06:19:12;18.50;99.90
12303;DHT22;6214;48.012;7.862;2023-06-04T06:21:39;18.50;99.90
12303;DHT22;6214;48.012;7.862;2023-06-04T06:24:06;18.50;99.90
12303;DHT22;6214;48.012;7.862;2023-06-04T06:26:33;18.90;99.90
12303;DHT22;6214;48.012;7.862;2023-06-04T06:29:00;19.30;99.90
12303;DHT22;6214;48.012;7.862;2023-06-04T06:31:27;19.60;99.90
12303;DHT22;6214;48.012;7.862;2023-06-04T06:33:55;19.60;99.90
12303;DHT22;6214;48.012;7.862;2023-06-04T06:36:22;19.70;99.90
12303;DHT22;6214;48.012;7.862;2023-06-04T06:38:49;20.10;99.90
12303;DHT22;6214;48.012;7.862;2023-06-04T06:41:17;20.70;99.90
12303;DHT22;6214;48.012;7.862;2023-06-04T06:43:44;21.40;99.90
12303;DHT22;6214;48.012;7.862;2023-06-04T06:46:11;21.70;99.90
12303;DHT22;6214;48.012;7.862;2023-06-04T06:48:38;21.80;99.90
12303;DHT22;6214;48.012;7.862;2023-06-04T06:51:05;21.90;99.90
12303;DHT22;6214;48.012;7.862;2023-06-04T06:53:32;22.10;99.90
12303;DHT22;6214;48.012;7.862;2023-06-04T06:55:59;22.30;99.90
12303;DHT22;6214;48.012;7.862;2023-06-04T06:58:27;22.60;99.90
12303;DHT22;6214;48.012;7.862;2023-06-04T07:00:54;23.10;99.90
12303;DHT22;6214;48.012;7.862;2023-06-04T07:03:23;23.50;99.90
12303;DHT22;6214;48.012;7.862;2023-06-04T07:05:50;24.00;99.90
12303;DHT22;6214;48.012;7.862;2023-06-04T07:08:17;24.80;99.90
12303;DHT22;6214;48.012;7.862;2023-06-04T07:10:44;24.70;99.90
12303;DHT22;6214;48.012;7.862;2023-06-04T07:13:11;25.60;99.90
12303;DHT22;6214;48.012;7.862;2023-06-04T07:15:38;26.70;99.90
12303;DHT22;6214;48.012;7.862;2023-06-04T07:18:05;27.60;99.90
12303;DHT22;6214;48.012;7.862;2023-06-04T07:20:32;29.50;99.90
12303;DHT22;6214;48.012;7.862;2023-06-04T07:23:00;31.20;98.40
12303;DHT22;6214;48.012;7.862;2023-06-04T07:25:27;32.40;94.30
12303;DHT22;6214;48.012;7.862;2023-06-04T07:27:54;33.70;91.90
12303;DHT22;6214;48.012;7.862;2023-06-04T07:30:27;34.70;87.10
12303;DHT22;6214;48.012;7.862;2023-06-04T07:32:54;35.70;79.80
12303;DHT22;6214;48.012;7.862;2023-06-04T07:35:21;35.80;73.20
12303;DHT22;6214;48.012;7.862;2023-06-04T07:37:49;32.70;74.90
12303;DHT22;6214;48.012;7.862;2023-06-04T07:40:17;32.40;81.40
12303;DHT22;6214;48.012;7.862;2023-06-04T07:42:45;34.60;76.50
12303;DHT22;6214;48.012;7.862;2023-06-04T07:45:15;35.80;71.60
12303;DHT22;6214;48.012;7.862;2023-06-04T07:47:43;33.20;69.60
12303;DHT22;6214;48.012;7.862;2023-06-04T07:50:10;30.90;75.10
12303;DHT22;6214;48.012;7.862;2023-06-04T07:52:37;28.50;80.50
12303;DHT22;6214;48.012;7.862;2023-06-04T07:55:05;26.50;88.50
12303;DHT22;6214;48.012;7.862;2023-06-04T07:57:32;25.30;94.40
12303;DHT22;6214;48.012;7.862;2023-06-04T07:59:59;24.60;98.00
12303;DHT22;6214;48.012;7.862;2023-06-04T08:02:26;24.00;99.90
12303;DHT22;6214;48.012;7.862;2023-06-04T08:04:53;23.40;99.90
12303;DHT22;6214;48.012;7.862;2023-06-04T08:07:20;23.10;99.90
12303;DHT22;6214;48.012;7.862;2023-06-04T08:09:47;23.40;99.90
12303;DHT22;6214;48.012;7.862;2023-06-04T08:12:15;23.50;99.90
12303;DHT22;6214;48.012;7.862;2023-06-04T08:14:43;23.80;99.90
12303;DHT22;6214;48.012;7.862;2023-06-04T08:17:10;23.60;99.90
12303;DHT22;6214;48.012;7.862;2023-06-04T08:19:37;23.20;99.90
12303;DHT22;6214;48.012;7.862;2023-06-04T08:22:04;22.90;99.90
12303;DHT22;6214;48.012;7.862;2023-06-04T08:24:31;23.10;99.90
12303;DHT22;6214;48.012;7.862;2023-06-04T08:26:58;23.10;99.90
12303;DHT22;6214;48.012;7.862;2023-06-04T08:29:26;22.80;99.90
12303;DHT22;6214;48.012;7.862;2023-06-04T08:31:53;22.60;99.90
12303;DHT22;6214;48.012;7.862;2023-06-04T08:34:20;22.30;99.90
12303;DHT22;6214;48.012;7.862;2023-06-04T08:36:47;21.90;99.90
12303;DHT22;6214;48.012;7.862;2023-06-04T08:39:14;21.80;99.90
12303;DHT22;6214;48.012;7.862;2023-06-04T08:41:43;21.60;99.90
12303;DHT22;6214;48.012;7.862;2023-06-04T08:44:11;21.30;99.90
12303;DHT22;6214;48.012;7.862;2023-06-04T08:46:39;20.90;99.90
12303;DHT22;6214;48.012;7.862;2023-06-04T08:49:08;20.80;99.90
12303;DHT22;6214;48.012;7.862;2023-06-04T08:51:36;20.60;99.90
12303;DHT22;6214;48.012;7.862;2023-06-04T08:54:08;20.50;99.90
12303;DHT22;6214;48.012;7.862;2023-06-04T08:56:36;20.50;99.90
12303;DHT22;6214;48.012;7.862;2023-06-04T08:59:05;20.30;99.90
12303;DHT22;6214;48.012;7.862;2023-06-04T09:01:35;20.30;99.90
12303;DHT22;6214;48.012;7.862;2023-06-04T09:04:06;20.20;99.90
12303;DHT22;6214;48.012;7.862;2023-06-04T09:06:39;20.20;99.90
12303;DHT22;6214;48.012;7.862;2023-06-04T09:09:09;20.20;99.90
12303;DHT22;6214;48.012;7.862;2023-06-04T09:11:51;20.20;99.90
12303;DHT22;6214;48.012;7.862;2023-06-04T09:14:19;20.30;99.90
12303;DHT22;6214;48.012;7.862;2023-06-04T09:16:52;20.00;99.90
12303;DHT22;6214;48.012;7.862;2023-06-04T09:19:21;19.90;99.90
12303;DHT22;6214;48.012;7.862;2023-06-04T09:21:52;19.70;99.90
12303;DHT22;6214;48.012;7.862;2023-06-04T09:24:20;19.60;99.90
12303;DHT22;6214;48.012;7.862;2023-06-04T09:26:48;19.70;99.90
12303;DHT22;6214;48.012;7.862;2023-06-04T09:29:16;19.90;99.90
12303;DHT22;6214;48.012;7.862;2023-06-04T09:31:59;19.90;99.90
12303;DHT22;6214;48.012;7.862;2023-06-04T09:34:29;20.00;99.90
12303;DHT22;6214;48.012;7.862;2023-06-04T09:36:58;20.10;99.90
12303;DHT22;6214;48.012;7.862;2023-06-04T09:39:25;20.10;99.90
12303;DHT22;6214;48.012;7.862;2023-06-04T09:42:00;20.30;99.90
12303;DHT22;6214;48.012;7.862;2023-06-04T09:44:28;20.30;99.90
12303;DHT22;6214;48.012;7.862;2023-06-04T09:46:56;20.50;99.90
12303;DHT22;6214;48.012;7.862;2023-06-04T09:49:24;20.60;99.90
12303;DHT22;6214;48.012;7.862;2023-06-04T09:51:51;20.50;99.90
12303;DHT22;6214;48.012;7.862;2023-06-04T09:54:18;20.80;99.90
12303;DHT22;6214;48.012;7.862;2023-06-04T09:56:45;20.70;99.90
12303;DHT22;6214;48.012;7.862;2023-06-04T09:59:13;20.50;99.90
12303;DHT22;6214;48.012;7.862;2023-06-04T10:01:41;20.40;99.90
12303;DHT22;6214;48.012;7.862;2023-06-04T10:04:09;20.50;99.90
12303;DHT22;6214;48.012;7.862;2023-06-04T10:06:39;20.70;99.90
12303;DHT22;6214;48.012;7.862;2023-06-04T10:09:08;20.50;99.90
12303;DHT22;6214;48.012;7.862;2023-06-04T10:11:44;20.50;99.90
12303;DHT22;6214;48.012;7.862;2023-06-04T10:16:43;20.80;99.90
12303;DHT22;6214;48.012;7.862;2023-06-04T10:19:11;21.10;99.90
12303;DHT22;6214;48.012;7.862;2023-06-04T10:21:38;21.20;99.90
12303;DHT22;6214;48.012;7.862;2023-06-04T10:24:06;21.50;99.90
12303;DHT22;6214;48.012;7.862;2023-06-04T10:26:34;21.90;99.90
12303;DHT22;6214;48.012;7.862;2023-06-04T10:29:02;21.90;99.90
12303;DHT22;6214;48.012;7.862;2023-06-04T10:31:29;22.10;99.90
12303;DHT22;6214;48.012;7.862;2023-06-04T10:33:57;22.20;99.90
12303;DHT22;6214;48.012;7.862;2023-06-04T10:36:25;22.60;99.90
12303;DHT22;6214;48.012;7.862;2023-06-04T10:38:53;23.10;99.90
12303;DHT22;6214;48.012;7.862;2023-06-04T10:41:23;23.00;99.90
12303;DHT22;6214;48.012;7.862;2023-06-04T10:43:59;22.70;99.90
12303;DHT22;6214;48.012;7.862;2023-06-04T10:46:40;22.80;99.90
12303;DHT22;6214;48.012;7.862;2023-06-04T10:49:10;23.00;99.90
12303;DHT22;6214;48.012;7.862;2023-06-04T10:51:38;23.30;99.90
12303;DHT22;6214;48.012;7.862;2023-06-04T10:54:06;23.60;99.90
12303;DHT22;6214;48.012;7.862;2023-06-04T10:56:35;23.70;99.90
12303;DHT22;6214;48.012;7.862;2023-06-04T10:59:13;23.70;99.90
12303;DHT22;6214;48.012;7.862;2023-06-04T11:01:40;23.90;99.90
12303;DHT22;6214;48.012;7.862;2023-06-04T11:04:24;24.10;99.90
12303;DHT22;6214;48.012;7.862;2023-06-04T11:07:07;23.90;99.90
12303;DHT22;6214;48.012;7.862;2023-06-04T11:09:47;24.10;99.90
12303;DHT22;6214;48.012;7.862;2023-06-04T11:12:15;24.40;99.90
12303;DHT22;6214;48.012;7.862;2023-06-04T11:14:54;24.70;99.90
12303;DHT22;6214;48.012;7.862;2023-06-04T11:17:21;24.40;99.90
12303;DHT22;6214;48.012;7.862;2023-06-04T11:19:49;24.40;99.90
12303;DHT22;6214;48.012;7.862;2023-06-04T11:22:16;24.40;99.90
12303;DHT22;6214;48.012;7.862;2023-06-04T11:24:44;24.60;99.90
12303;DHT22;6214;48.012;7.862;2023-06-04T11:27:11;24.70;99.90
12303;DHT22;6214;48.012;7.862;2023-06-04T11:29:51;24.70;99.90
12303;DHT22;6214;48.012;7.862;2023-06-04T11:32:24;24.60;99.90
12303;DHT22;6214;48.012;7.862;2023-06-04T11:35:02;24.80;99.90
12303;DHT22;6214;48.012;7.862;2023-06-04T11:37:30;25.30;99.90
12303;DHT22;6214;48.012;7.862;2023-06-04T11:39:59;25.50;99.90
12303;DHT22;6214;48.012;7.862;2023-06-04T11:42:32;25.30;99.90
12303;DHT22;6214;48.012;7.862;2023-06-04T11:44:59;25.10;99.90
12303;DHT22;6214;48.012;7.862;2023-06-04T11:47:27;24.90;99.90
12303;DHT22;6214;48.012;7.862;2023-06-04T11:49:57;25.00;99.90
12303;DHT22;6214;48.012;7.862;2023-06-04T11:52:25;24.90;99.90
12303;DHT22;6214;48.012;7.862;2023-06-04T11:54:52;25.20;99.90
12303;DHT22;6214;48.012;7.862;2023-06-04T11:57:19;25.30;99.90
12303;DHT22;6214;48.012;7.862;2023-06-04T11:59:46;25.50;99.90
12303;DHT22;6214;48.012;7.862;2023-06-04T12:02:13;25.50;99.90
12303;DHT22;6214;48.012;7.862;2023-06-04T12:04:41;25.40;99.90
12303;DHT22;6214;48.012;7.862;2023-06-04T12:07:08;25.30;99.90
12303;DHT22;6214;48.012;7.862;2023-06-04T12:09:36;25.00;99.90
12303;DHT22;6214;48.012;7.862;2023-06-04T12:12:07;25.20;99.90
12303;DHT22;6214;48.012;7.862;2023-06-04T12:14:34;25.10;99.90
12303;DHT22;6214;48.012;7.862;2023-06-04T12:17:08;25.30;99.90
12303;DHT22;6214;48.012;7.862;2023-06-04T12:19:54;25.50;99.90
12303;DHT22;6214;48.012;7.862;2023-06-04T12:22:22;25.40;99.90
12303;DHT22;6214;48.012;7.862;2023-06-04T12:24:51;25.40;99.90
12303;DHT22;6214;48.012;7.862;2023-06-04T12:27:22;25.60;99.90
12303;DHT22;6214;48.012;7.862;2023-06-04T12:30:03;25.90;99.90
12303;DHT22;6214;48.012;7.862;2023-06-04T12:32:35;25.90;99.90
12303;DHT22;6214;48.012;7.862;2023-06-04T12:35:02;25.60;99.90
12303;DHT22;6214;48.012;7.862;2023-06-04T12:37:30;25.20;99.90
12303;DHT22;6214;48.012;7.862;2023-06-04T12:39:57;24.90;99.90
12303;DHT22;6214;48.012;7.862;2023-06-04T12:42:24;24.80;99.90
12303;DHT22;6214;48.012;7.862;2023-06-04T12:44:51;24.70;99.90
12303;DHT22;6214;48.012;7.862;2023-06-04T12:47:18;24.70;99.90
12303;DHT22;6214;48.012;7.862;2023-06-04T12:49:45;24.70;99.90
12303;DHT22;6214;48.012;7.862;2023-06-04T12:52:13;24.80;99.90
12303;DHT22;6214;48.012;7.862;2023-06-04T12:54:43;24.70;99.90
12303;DHT22;6214;48.012;7.862;2023-06-04T12:57:10;24.90;99.90
12303;DHT22;6214;48.012;7.862;2023-06-04T12:59:37;25.00;99.90
12303;DHT22;6214;48.012;7.862;2023-06-04T13:02:04;25.00;99.90
12303;DHT22;6214;48.012;7.862;2023-06-04T13:04:32;25.10;99.90
12303;DHT22;6214;48.012;7.862;2023-06-04T13:06:59;23.30;99.90
12303;DHT22;6214;48.012;7.862;2023-06-04T13:09:27;24.90;99.90
12303;DHT22;6214;48.012;7.862;2023-06-04T13:11:58;25.00;99.90
12303;DHT22;6214;48.012;7.862;2023-06-04T13:14:26;25.10;99.90
12303;DHT22;6214;48.012;7.862;2023-06-04T13:16:53;25.40;99.90
12303;DHT22;6214;48.012;7.862;2023-06-04T13:19:20;25.70;99.90
12303;DHT22;6214;48.012;7.862;2023-06-04T13:21:47;25.90;99.90
12303;DHT22;6214;48.012;7.862;2023-06-04T13:24:14;26.10;99.90
12303;DHT22;6214;48.012;7.862;2023-06-04T13:26:42;26.20;99.90
12303;DHT22;6214;48.012;7.862;2023-06-04T13:29:09;26.10;99.90
12303;DHT22;6214;48.012;7.862;2023-06-04T13:31:37;25.90;99.90
12303;DHT22;6214;48.012;7.862;2023-06-04T13:34:06;26.00;99.90
12303;DHT22;6214;48.012;7.862;2023-06-04T13:36:52;26.00;99.90
12303;DHT22;6214;48.012;7.862;2023-06-04T13:39:19;26.00;99.90
12303;DHT22;6214;48.012;7.862;2023-06-04T13:41:46;26.10;99.90
12303;DHT22;6214;48.012;7.862;2023-06-04T13:44:13;26.20;99.90
12303;DHT22;6214;48.012;7.862;2023-06-04T13:46:41;26.50;99.90
12303;DHT22;6214;48.012;7.862;2023-06-04T13:49:09;26.50;99.90
12303;DHT22;6214;48.012;7.862;2023-06-04T13:51:36;26.50;99.90
12303;DHT22;6214;48.012;7.862;2023-06-04T13:54:03;26.60;99.90
12303;DHT22;6214;48.012;7.862;2023-06-04T13:56:30;26.40;99.90
12303;DHT22;6214;48.012;7.862;2023-06-04T13:58:57;26.40;99.90
12303;DHT22;6214;48.012;7.862;2023-06-04T14:01:24;26.50;99.90
12303;DHT22;6214;48.012;7.862;2023-06-04T14:03:51;26.40;99.90
12303;DHT22;6214;48.012;7.862;2023-06-04T14:06:19;26.40;99.90
12303;DHT22;6214;48.012;7.862;2023-06-04T14:08:46;26.40;99.90
12303;DHT22;6214;48.012;7.862;2023-06-04T14:11:13;26.30;99.90
12303;DHT22;6214;48.012;7.862;2023-06-04T14:13:40;26.40;99.90
12303;DHT22;6214;48.012;7.862;2023-06-04T14:16:11;26.30;99.90
12303;DHT22;6214;48.012;7.862;2023-06-04T14:18:38;26.10;99.90
12303;DHT22;6214;48.012;7.862;2023-06-04T14:21:06;26.40;99.90
12303;DHT22;6214;48.012;7.862;2023-06-04T14:23:33;26.60;99.90
12303;DHT22;6214;48.012;7.862;2023-06-04T14:26:00;26.80;99.90
12303;DHT22;6214;48.012;7.862;2023-06-04T14:28:28;26.90;99.90
12303;DHT22;6214;48.012;7.862;2023-06-04T14:30:55;26.70;99.90
12303;DHT22;6214;48.012;7.862;2023-06-04T14:33:23;26.80;99.90
12303;DHT22;6214;48.012;7.862;2023-06-04T14:35:50;26.80;99.90
12303;DHT22;6214;48.012;7.862;2023-06-04T14:38:17;26.80;99.90
12303;DHT22;6214;48.012;7.862;2023-06-04T14:40:44;26.80;99.90
12303;DHT22;6214;48.012;7.862;2023-06-04T14:43:12;26.60;99.90
12303;DHT22;6214;48.012;7.862;2023-06-04T14:45:39;26.70;99.90
12303;DHT22;6214;48.012;7.862;2023-06-04T14:48:07;26.80;99.90
12303;DHT22;6214;48.012;7.862;2023-06-04T14:50:37;26.80;99.90
12303;DHT22;6214;48.012;7.862;2023-06-04T14:53:04;26.70;99.90
12303;DHT22;6214;48.012;7.862;2023-06-04T14:55:35;26.90;99.90
12303;DHT22;6214;48.012;7.862;2023-06-04T14:58:02;26.90;99.90
12303;DHT22;6214;48.012;7.862;2023-06-04T15:00:32;26.90;99.90
12303;DHT22;6214;48.012;7.862;2023-06-04T15:02:59;27.00;99.90
12303;DHT22;6214;48.012;7.862;2023-06-04T15:05:31;27.10;99.90
12303;DHT22;6214;48.012;7.862;2023-06-04T15:07:58;27.10;99.90
12303;DHT22;6214;48.012;7.862;2023-06-04T15:10:26;27.10;99.90
12303;DHT22;6214;48.012;7.862;2023-06-04T15:12:53;26.90;99.90
12303;DHT22;6214;48.012;7.862;2023-06-04T15:15:21;26.90;99.90
12303;DHT22;6214;48.012;7.862;2023-06-04T15:17:49;27.00;99.90
12303;DHT22;6214;48.012;7.862;2023-06-04T15:20:16;27.00;99.90
12303;DHT22;6214;48.012;7.862;2023-06-04T15:22:44;27.00;99.90
12303;DHT22;6214;48.012;7.862;2023-06-04T15:25:11;27.10;99.90
12303;DHT22;6214;48.012;7.862;2023-06-04T15:27:38;27.20;99.90
12303;DHT22;6214;48.012;7.862;2023-06-04T15:30:06;27.10;99.90
12303;DHT22;6214;48.012;7.862;2023-06-04T15:32:33;27.10;99.90
12303;DHT22;6214;48.012;7.862;2023-06-04T15:35:01;27.00;99.80
12303;DHT22;6214;48.012;7.862;2023-06-04T15:37:29;26.90;99.90
12303;DHT22;6214;48.012;7.862;2023-06-04T15:39:56;26.80;99.60
12303;DHT22;6214;48.012;7.862;2023-06-04T15:42:25;26.80;99.30
12303;DHT22;6214;48.012;7.862;2023-06-04T15:44:52;26.90;99.70
12303;DHT22;6214;48.012;7.862;2023-06-04T15:47:19;27.10;99.90
12303;DHT22;6214;48.012;7.862;2023-06-04T15:49:46;27.10;98.80
12303;DHT22;6214;48.012;7.862;2023-06-04T15:52:13;26.90;97.20
12303;DHT22;6214;48.012;7.862;2023-06-04T15:54:40;26.80;96.20
12303;DHT22;6214;48.012;7.862;2023-06-04T15:57:12;26.90;96.10
12303;DHT22;6214;48.012;7.862;2023-06-04T15:59:40;26.80;96.00
12303;DHT22;6214;48.012;7.862;2023-06-04T16:02:08;26.90;96.20
12303;DHT22;6214;48.012;7.862;2023-06-04T16:04:35;26.90;95.40